sensor_id;sensor_type;location;lat;lon;timestamp;P1;durP1;ratioP1;P2;durP2;ratioP2
62006;SDS011;47963;53.008;6.754;2023-01-30T00:00:53;37.00;;;31.15;;
62006;SDS011;47963;53.008;6.754;2023-01-30T00:03:20;40.10;;;31.15;;
62006;SDS011;47963;53.008;6.754;2023-01-30T00:05:47;42.28;;;31.55;;
62006;SDS011;47963;53.008;6.754;2023-01-30T00:08:13;39.17;;;31.13;;
62006;SDS011;47963;53.008;6.754;2023-01-30T00:10:39;37.03;;;29.38;;
62006;SDS011;47963;53.008;6.754;2023-01-30T00:13:05;38.33;;;29.70;;
62006;SDS011;47963;53.008;6.754;2023-01-30T00:15:30;37.35;;;28.98;;
62006;SDS011;47963;53.008;6.754;2023-01-30T00:17:56;36.90;;;29.95;;
62006;SDS011;47963;53.008;6.754;2023-01-30T00:20:22;37.22;;;29.52;;
62006;SDS011;47963;53.008;6.754;2023-01-30T00:22:47;38.42;;;29.98;;
62006;SDS011;47963;53.008;6.754;2023-01-30T00:25:13;38.17;;;28.42;;
62006;SDS011;47963;53.008;6.754;2023-01-30T00:27:39;38.20;;;28.35;;
62006;SDS011;47963;53.008;6.754;2023-01-30T00:30:04;43.60;;;30.95;;
62006;SDS011;47963;53.008;6.754;2023-01-30T00:32:31;38.65;;;29.17;;
62006;SDS011;47963;53.008;6.754;2023-01-30T00:34:57;39.72;;;27.48;;
62006;SDS011;47963;53.008;6.754;2023-01-30T00:37:23;37.92;;;28.40;;
62006;SDS011;47963;53.008;6.754;2023-01-30T00:39:49;34.90;;;27.05;;
62006;SDS011;47963;53.008;6.754;2023-01-30T00:42:14;35.63;;;27.92;;
62006;SDS011;47963;53.008;6.754;2023-01-30T00:44:58;34.35;;;25.95;;
62006;SDS011;47963;53.008;6.754;2023-01-30T00:47:42;37.95;;;25.92;;
62006;SDS011;47963;53.008;6.754;2023-01-30T00:50:08;29.80;;;23.48;;
62006;SDS011;47963;53.008;6.754;2023-01-30T00:52:34;35.00;;;24.63;;
62006;SDS011;47963;53.008;6.754;2023-01-30T00:55:00;35.35;;;24.35;;
62006;SDS011;47963;53.008;6.754;2023-01-30T00:57:26;31.95;;;22.50;;
62006;SDS011;47963;53.008;6.754;2023-01-30T00:59:51;30.42;;;22.50;;
62006;SDS011;47963;53.008;6.754;2023-01-30T01:02:17;29.73;;;22.92;;
62006;SDS011;47963;53.008;6.754;2023-01-30T01:04:43;35.28;;;22.90;;
62006;SDS011;47963;53.008;6.754;2023-01-30T01:07:09;31.80;;;22.02;;
62006;SDS011;47963;53.008;6.754;2023-01-30T01:09:36;33.53;;;22.27;;
62006;SDS011;47963;53.008;6.754;2023-01-30T01:12:02;31.80;;;20.80;;
62006;SDS011;47963;53.008;6.754;2023-01-30T01:14:28;30.10;;;20.00;;
62006;SDS011;47963;53.008;6.754;2023-01-30T01:16:53;30.92;;;18.05;;
62006;SDS011;47963;53.008;6.754;2023-01-30T01:19:19;27.92;;;18.98;;
62006;SDS011;47963;53.008;6.754;2023-01-30T01:21:45;31.98;;;18.92;;
62006;SDS011;47963;53.008;6.754;2023-01-30T01:24:11;32.25;;;18.05;;
62006;SDS011;47963;53.008;6.754;2023-01-30T01:26:38;26.92;;;16.60;;
62006;SDS011;47963;53.008;6.754;2023-01-30T01:29:05;28.80;;;17.17;;
62006;SDS011;47963;53.008;6.754;2023-01-30T01:31:35;25.08;;;16.45;;
62006;SDS011;47963;53.008;6.754;2023-01-30T01:34:00;27.15;;;15.70;;
62006;SDS011;47963;53.008;6.754;2023-01-30T01:36:26;28.13;;;15.85;;
62006;SDS011;47963;53.008;6.754;2023-01-30T01:38:52;27.02;;;15.68;;
62006;SDS011;47963;53.008;6.754;2023-01-30T01:41:17;30.33;;;15.93;;
62006;SDS011;47963;53.008;6.754;2023-01-30T01:43:57;24.60;;;14.23;;
62006;SDS011;47963;53.008;6.754;2023-01-30T01:49:13;20.90;;;12.10;;
62006;SDS011;47963;53.008;6.754;2023-01-30T01:51:46;20.13;;;12.10;;
62006;SDS011;47963;53.008;6.754;2023-01-30T01:54:14;19.60;;;11.43;;
62006;SDS011;47963;53.008;6.754;2023-01-30T01:56:44;20.00;;;12.25;;
62006;SDS011;47963;53.008;6.754;2023-01-30T01:59:20;21.10;;;11.07;;
62006;SDS011;47963;53.008;6.754;2023-01-30T02:01:52;17.55;;;10.20;;
62006;SDS011;47963;53.008;6.754;2023-01-30T02:04:22;19.02;;;10.63;;
62006;SDS011;47963;53.008;6.754;2023-01-30T02:07:08;19.08;;;10.65;;
62006;SDS011;47963;53.008;6.754;2023-01-30T02:09:36;19.65;;;9.77;;
62006;SDS011;47963;53.008;6.754;2023-01-30T02:12:02;18.08;;;9.35;;
62006;SDS011;47963;53.008;6.754;2023-01-30T02:14:30;17.10;;;8.88;;
62006;SDS011;47963;53.008;6.754;2023-01-30T02:16:58;17.13;;;9.13;;
62006;SDS011;47963;53.008;6.754;2023-01-30T02:22:21;16.60;;;8.40;;
62006;SDS011;47963;53.008;6.754;2023-01-30T02:33:39;17.42;;;8.13;;
62006;SDS011;47963;53.008;6.754;2023-01-30T02:39:21;17.48;;;8.63;;
62006;SDS011;47963;53.008;6.754;2023-01-30T02:47:35;18.75;;;9.27;;
62006;SDS011;47963;53.008;6.754;2023-01-30T02:53:10;22.00;;;10.53;;
62006;SDS011;47963;53.008;6.754;2023-01-30T02:55:38;22.30;;;9.80;;
62006;SDS011;47963;53.008;6.754;2023-01-30T02:58:05;22.80;;;9.30;;
62006;SDS011;47963;53.008;6.754;2023-01-30T03:03:03;23.08;;;10.00;;
62006;SDS011;47963;53.008;6.754;2023-01-30T03:05:50;25.90;;;9.95;;
62006;SDS011;47963;53.008;6.754;2023-01-30T03:11:05;22.38;;;9.65;;
62006;SDS011;47963;53.008;6.754;2023-01-30T03:16:21;31.42;;;10.65;;
62006;SDS011;47963;53.008;6.754;2023-01-30T03:18:52;26.75;;;9.82;;
62006;SDS011;47963;53.008;6.754;2023-01-30T03:21:18;25.05;;;10.05;;
62006;SDS011;47963;53.008;6.754;2023-01-30T03:23:44;29.15;;;9.43;;
62006;SDS011;47963;53.008;6.754;2023-01-30T03:26:13;25.42;;;9.20;;
62006;SDS011;47963;53.008;6.754;2023-01-30T03:28:42;29.03;;;8.80;;
62006;SDS011;47963;53.008;6.754;2023-01-30T03:31:10;24.05;;;8.93;;
62006;SDS011;47963;53.008;6.754;2023-01-30T03:33:36;25.70;;;8.85;;
62006;SDS011;47963;53.008;6.754;2023-01-30T03:36:01;29.08;;;8.25;;
62006;SDS011;47963;53.008;6.754;2023-01-30T03:38:27;23.98;;;7.38;;
62006;SDS011;47963;53.008;6.754;2023-01-30T03:40:53;25.20;;;8.07;;
62006;SDS011;47963;53.008;6.754;2023-01-30T03:43:18;25.80;;;7.68;;
62006;SDS011;47963;53.008;6.754;2023-01-30T03:45:44;26.45;;;7.72;;
62006;SDS011;47963;53.008;6.754;2023-01-30T03:48:10;27.92;;;7.78;;
62006;SDS011;47963;53.008;6.754;2023-01-30T03:50:35;25.35;;;7.05;;
62006;SDS011;47963;53.008;6.754;2023-01-30T03:53:01;22.35;;;7.20;;
62006;SDS011;47963;53.008;6.754;2023-01-30T03:55:27;26.50;;;6.80;;
62006;SDS011;47963;53.008;6.754;2023-01-30T03:57:56;30.35;;;7.40;;
62006;SDS011;47963;53.008;6.754;2023-01-30T04:00:21;26.50;;;7.32;;
62006;SDS011;47963;53.008;6.754;2023-01-30T04:02:47;29.85;;;7.63;;
62006;SDS011;47963;53.008;6.754;2023-01-30T04:05:13;34.28;;;7.85;;
62006;SDS011;47963;53.008;6.754;2023-01-30T04:07:39;24.33;;;7.15;;
62006;SDS011;47963;53.008;6.754;2023-01-30T04:10:05;24.73;;;6.68;;
62006;SDS011;47963;53.008;6.754;2023-01-30T04:12:30;28.45;;;7.57;;
62006;SDS011;47963;53.008;6.754;2023-01-30T04:14:56;27.90;;;7.18;;
62006;SDS011;47963;53.008;6.754;2023-01-30T04:17:22;28.85;;;6.97;;
62006;SDS011;47963;53.008;6.754;2023-01-30T04:19:47;24.90;;;6.38;;
62006;SDS011;47963;53.008;6.754;2023-01-30T04:22:13;25.15;;;7.07;;
62006;SDS011;47963;53.008;6.754;2023-01-30T04:24:38;30.95;;;6.90;;
62006;SDS011;47963;53.008;6.754;2023-01-30T04:27:04;22.83;;;6.57;;
62006;SDS011;47963;53.008;6.754;2023-01-30T04:29:30;22.95;;;6.10;;
62006;SDS011;47963;53.008;6.754;2023-01-30T04:31:55;26.73;;;6.88;;
62006;SDS011;47963;53.008;6.754;2023-01-30T04:34:21;24.33;;;6.22;;
62006;SDS011;47963;53.008;6.754;2023-01-30T04:36:47;24.90;;;6.00;;
62006;SDS011;47963;53.008;6.754;2023-01-30T04:39:12;25.15;;;6.32;;
62006;SDS011;47963;53.008;6.754;2023-01-30T04:41:38;27.80;;;6.50;;
62006;SDS011;47963;53.008;6.754;2023-01-30T04:44:03;28.02;;;6.68;;
62006;SDS011;47963;53.008;6.754;2023-01-30T04:46:29;25.23;;;6.20;;
62006;SDS011;47963;53.008;6.754;2023-01-30T04:48:55;29.77;;;6.75;;
62006;SDS011;47963;53.008;6.754;2023-01-30T04:51:20;24.17;;;6.03;;
62006;SDS011;47963;53.008;6.754;2023-01-30T04:53:46;28.20;;;6.70;;
62006;SDS011;47963;53.008;6.754;2023-01-30T04:56:12;26.10;;;5.70;;
62006;SDS011;47963;53.008;6.754;2023-01-30T04:58:37;27.63;;;6.20;;
62006;SDS011;47963;53.008;6.754;2023-01-30T05:04:00;22.98;;;5.70;;
62006;SDS011;47963;53.008;6.754;2023-01-30T05:06:26;26.30;;;6.50;;
62006;SDS011;47963;53.008;6.754;2023-01-30T05:08:53;26.77;;;6.20;;
62006;SDS011;47963;53.008;6.754;2023-01-30T05:11:20;29.45;;;6.35;;
62006;SDS011;47963;53.008;6.754;2023-01-30T05:13:46;27.20;;;5.95;;
62006;SDS011;47963;53.008;6.754;2023-01-30T05:16:12;24.00;;;6.18;;
62006;SDS011;47963;53.008;6.754;2023-01-30T05:18:38;25.35;;;6.38;;
62006;SDS011;47963;53.008;6.754;2023-01-30T05:21:08;30.38;;;6.03;;
62006;SDS011;47963;53.008;6.754;2023-01-30T05:23:36;26.67;;;5.85;;
62006;SDS011;47963;53.008;6.754;2023-01-30T05:26:02;31.55;;;6.65;;
62006;SDS011;47963;53.008;6.754;2023-01-30T05:28:28;26.58;;;6.20;;
62006;SDS011;47963;53.008;6.754;2023-01-30T05:30:54;32.25;;;6.88;;
62006;SDS011;47963;53.008;6.754;2023-01-30T05:33:25;30.38;;;7.22;;
62006;SDS011;47963;53.008;6.754;2023-01-30T05:35:51;31.73;;;6.82;;
62006;SDS011;47963;53.008;6.754;2023-01-30T05:38:17;34.08;;;6.50;;
62006;SDS011;47963;53.008;6.754;2023-01-30T05:40:42;25.45;;;6.57;;
62006;SDS011;47963;53.008;6.754;2023-01-30T05:43:08;26.73;;;6.70;;
62006;SDS011;47963;53.008;6.754;2023-01-30T05:45:34;33.67;;;6.60;;
62006;SDS011;47963;53.008;6.754;2023-01-30T05:48:01;28.00;;;6.35;;
62006;SDS011;47963;53.008;6.754;2023-01-30T05:50:27;29.90;;;6.68;;
62006;SDS011;47963;53.008;6.754;2023-01-30T05:52:53;29.33;;;6.55;;
62006;SDS011;47963;53.008;6.754;2023-01-30T05:55:18;28.65;;;6.90;;
62006;SDS011;47963;53.008;6.754;2023-01-30T05:57:44;28.45;;;6.53;;
62006;SDS011;47963;53.008;6.754;2023-01-30T06:00:10;29.58;;;7.03;;
62006;SDS011;47963;53.008;6.754;2023-01-30T06:02:36;32.38;;;7.47;;
62006;SDS011;47963;53.008;6.754;2023-01-30T06:05:02;30.23;;;6.97;;
62006;SDS011;47963;53.008;6.754;2023-01-30T06:07:27;30.63;;;6.80;;
62006;SDS011;47963;53.008;6.754;2023-01-30T06:09:53;33.58;;;7.28;;
62006;SDS011;47963;53.008;6.754;2023-01-30T06:12:18;27.85;;;6.70;;
62006;SDS011;47963;53.008;6.754;2023-01-30T06:14:44;29.23;;;6.40;;
62006;SDS011;47963;53.008;6.754;2023-01-30T06:17:10;32.33;;;6.68;;
62006;SDS011;47963;53.008;6.754;2023-01-30T06:19:35;32.78;;;6.72;;
62006;SDS011;47963;53.008;6.754;2023-01-30T06:22:01;31.38;;;6.40;;
62006;SDS011;47963;53.008;6.754;2023-01-30T06:24:27;30.85;;;6.70;;
62006;SDS011;47963;53.008;6.754;2023-01-30T06:26:53;29.30;;;6.18;;
62006;SDS011;47963;53.008;6.754;2023-01-30T06:29:18;35.25;;;7.25;;
62006;SDS011;47963;53.008;6.754;2023-01-30T06:31:44;32.90;;;6.68;;
62006;SDS011;47963;53.008;6.754;2023-01-30T06:34:11;32.53;;;6.75;;
62006;SDS011;47963;53.008;6.754;2023-01-30T06:36:37;27.02;;;5.88;;
62006;SDS011;47963;53.008;6.754;2023-01-30T06:39:02;27.25;;;6.05;;
62006;SDS011;47963;53.008;6.754;2023-01-30T06:41:28;30.52;;;6.15;;
62006;SDS011;47963;53.008;6.754;2023-01-30T06:43:54;29.45;;;6.40;;
62006;SDS011;47963;53.008;6.754;2023-01-30T06:46:19;27.25;;;5.68;;
62006;SDS011;47963;53.008;6.754;2023-01-30T06:48:45;28.85;;;6.28;;
62006;SDS011;47963;53.008;6.754;2023-01-30T06:51:11;29.80;;;6.57;;
62006;SDS011;47963;53.008;6.754;2023-01-30T06:53:37;31.63;;;6.13;;
62006;SDS011;47963;53.008;6.754;2023-01-30T06:56:03;27.15;;;6.07;;
62006;SDS011;47963;53.008;6.754;2023-01-30T06:58:29;27.25;;;5.82;;
62006;SDS011;47963;53.008;6.754;2023-01-30T07:00:54;32.17;;;6.78;;
62006;SDS011;47963;53.008;6.754;2023-01-30T07:03:20;30.48;;;6.60;;
62006;SDS011;47963;53.008;6.754;2023-01-30T07:05:46;26.10;;;6.03;;
62006;SDS011;47963;53.008;6.754;2023-01-30T07:08:12;29.60;;;6.55;;
62006;SDS011;47963;53.008;6.754;2023-01-30T07:10:39;26.35;;;6.30;;
62006;SDS011;47963;53.008;6.754;2023-01-30T07:13:05;29.50;;;5.68;;
62006;SDS011;47963;53.008;6.754;2023-01-30T07:15:31;28.42;;;6.03;;
62006;SDS011;47963;53.008;6.754;2023-01-30T07:17:57;27.80;;;6.15;;
62006;SDS011;47963;53.008;6.754;2023-01-30T07:20:23;28.05;;;6.45;;
62006;SDS011;47963;53.008;6.754;2023-01-30T07:22:54;31.52;;;6.45;;
62006;SDS011;47963;53.008;6.754;2023-01-30T07:25:21;33.53;;;6.03;;
62006;SDS011;47963;53.008;6.754;2023-01-30T07:27:49;31.90;;;5.95;;
62006;SDS011;47963;53.008;6.754;2023-01-30T07:30:19;29.98;;;6.93;;
62006;SDS011;47963;53.008;6.754;2023-01-30T07:32:49;30.08;;;7.00;;
62006;SDS011;47963;53.008;6.754;2023-01-30T07:35:16;24.45;;;5.35;;
62006;SDS011;47963;53.008;6.754;2023-01-30T07:37:43;30.58;;;6.47;;
62006;SDS011;47963;53.008;6.754;2023-01-30T07:40:10;30.58;;;6.25;;
62006;SDS011;47963;53.008;6.754;2023-01-30T07:42:36;28.20;;;6.05;;
62006;SDS011;47963;53.008;6.754;2023-01-30T07:45:02;30.73;;;6.95;;
62006;SDS011;47963;53.008;6.754;2023-01-30T07:47:28;27.90;;;6.00;;
62006;SDS011;47963;53.008;6.754;2023-01-30T07:49:54;26.70;;;6.07;;
62006;SDS011;47963;53.008;6.754;2023-01-30T07:52:20;27.67;;;5.75;;
62006;SDS011;47963;53.008;6.754;2023-01-30T07:54:46;29.63;;;6.13;;
62006;SDS011;47963;53.008;6.754;2023-01-30T07:57:12;29.27;;;6.75;;
62006;SDS011;47963;53.008;6.754;2023-01-30T07:59:39;32.17;;;6.32;;
62006;SDS011;47963;53.008;6.754;2023-01-30T08:02:04;30.95;;;6.68;;
62006;SDS011;47963;53.008;6.754;2023-01-30T08:04:33;31.80;;;6.70;;
62006;SDS011;47963;53.008;6.754;2023-01-30T08:06:58;31.20;;;6.90;;
62006;SDS011;47963;53.008;6.754;2023-01-30T08:09:24;26.98;;;6.50;;
62006;SDS011;47963;53.008;6.754;2023-01-30T08:11:50;29.25;;;7.05;;
62006;SDS011;47963;53.008;6.754;2023-01-30T08:14:15;27.33;;;5.53;;
62006;SDS011;47963;53.008;6.754;2023-01-30T08:16:41;27.55;;;6.05;;
62006;SDS011;47963;53.008;6.754;2023-01-30T08:19:07;25.95;;;5.97;;
62006;SDS011;47963;53.008;6.754;2023-01-30T08:21:32;25.80;;;5.60;;
62006;SDS011;47963;53.008;6.754;2023-01-30T08:23:58;27.58;;;5.97;;
62006;SDS011;47963;53.008;6.754;2023-01-30T08:26:24;27.73;;;6.03;;
62006;SDS011;47963;53.008;6.754;2023-01-30T08:28:49;27.02;;;5.78;;
62006;SDS011;47963;53.008;6.754;2023-01-30T08:31:15;26.40;;;6.07;;
62006;SDS011;47963;53.008;6.754;2023-01-30T08:33:41;31.40;;;6.05;;
62006;SDS011;47963;53.008;6.754;2023-01-30T08:36:07;27.92;;;6.43;;
62006;SDS011;47963;53.008;6.754;2023-01-30T08:38:33;25.90;;;5.70;;
62006;SDS011;47963;53.008;6.754;2023-01-30T08:40:59;27.83;;;6.25;;
62006;SDS011;47963;53.008;6.754;2023-01-30T08:43:25;28.38;;;6.63;;
62006;SDS011;47963;53.008;6.754;2023-01-30T08:45:54;29.27;;;6.53;;
62006;SDS011;47963;53.008;6.754;2023-01-30T08:48:21;32.95;;;6.43;;
62006;SDS011;47963;53.008;6.754;2023-01-30T08:50:50;28.85;;;7.07;;
62006;SDS011;47963;53.008;6.754;2023-01-30T08:53:17;24.48;;;6.20;;
62006;SDS011;47963;53.008;6.754;2023-01-30T08:55:48;28.33;;;6.10;;
62006;SDS011;47963;53.008;6.754;2023-01-30T08:58:15;35.97;;;6.80;;
62006;SDS011;47963;53.008;6.754;2023-01-30T09:00:41;28.15;;;6.30;;
62006;SDS011;47963;53.008;6.754;2023-01-30T09:03:08;27.65;;;6.95;;
62006;SDS011;47963;53.008;6.754;2023-01-30T09:05:34;28.88;;;6.55;;
62006;SDS011;47963;53.008;6.754;2023-01-30T09:08:00;30.33;;;6.68;;
62006;SDS011;47963;53.008;6.754;2023-01-30T09:10:26;28.35;;;6.70;;
62006;SDS011;47963;53.008;6.754;2023-01-30T09:12:51;33.40;;;6.72;;
62006;SDS011;47963;53.008;6.754;2023-01-30T09:15:17;28.40;;;6.60;;
62006;SDS011;47963;53.008;6.754;2023-01-30T09:17:42;28.52;;;7.60;;
62006;SDS011;47963;53.008;6.754;2023-01-30T09:20:09;31.25;;;7.25;;
62006;SDS011;47963;53.008;6.754;2023-01-30T09:22:36;29.95;;;6.95;;
62006;SDS011;47963;53.008;6.754;2023-01-30T09:25:02;31.30;;;6.70;;
62006;SDS011;47963;53.008;6.754;2023-01-30T09:27:29;27.65;;;6.55;;
62006;SDS011;47963;53.008;6.754;2023-01-30T09:29:54;28.25;;;6.18;;
62006;SDS011;47963;53.008;6.754;2023-01-30T09:32:20;29.10;;;6.50;;
62006;SDS011;47963;53.008;6.754;2023-01-30T09:34:46;31.45;;;5.80;;
62006;SDS011;47963;53.008;6.754;2023-01-30T09:37:11;29.95;;;6.65;;
62006;SDS011;47963;53.008;6.754;2023-01-30T09:39:37;29.40;;;6.78;;
62006;SDS011;47963;53.008;6.754;2023-01-30T09:47:13;29.65;;;6.40;;
62006;SDS011;47963;53.008;6.754;2023-01-30T09:49:55;28.17;;;6.10;;
62006;SDS011;47963;53.008;6.754;2023-01-30T09:55:29;27.23;;;6.55;;
62006;SDS011;47963;53.008;6.754;2023-01-30T09:57:57;30.50;;;6.25;;
62006;SDS011;47963;53.008;6.754;2023-01-30T10:00:29;26.70;;;6.20;;
62006;SDS011;47963;53.008;6.754;2023-01-30T10:03:05;34.22;;;6.72;;
62006;SDS011;47963;53.008;6.754;2023-01-30T10:05:41;26.90;;;5.80;;
62006;SDS011;47963;53.008;6.754;2023-01-30T10:16:50;27.40;;;6.28;;
62006;SDS011;47963;53.008;6.754;2023-01-30T10:19:47;27.58;;;6.57;;
62006;SDS011;47963;53.008;6.754;2023-01-30T10:22:43;26.63;;;6.20;;
62006;SDS011;47963;53.008;6.754;2023-01-30T10:30:50;28.63;;;6.70;;
62006;SDS011;47963;53.008;6.754;2023-01-30T10:33:27;25.15;;;6.63;;
62006;SDS011;47963;53.008;6.754;2023-01-30T10:36:10;24.23;;;6.15;;
62006;SDS011;47963;53.008;6.754;2023-01-30T10:38:45;32.50;;;7.28;;
62006;SDS011;47963;53.008;6.754;2023-01-30T10:43:59;27.63;;;6.07;;
62006;SDS011;47963;53.008;6.754;2023-01-30T10:49:18;23.08;;;6.00;;
62006;SDS011;47963;53.008;6.754;2023-01-30T10:54:47;14.73;;;2.60;;
62006;SDS011;47963;53.008;6.754;2023-01-30T10:57:45;12.57;;;2.45;;
62006;SDS011;47963;53.008;6.754;2023-01-30T11:00:24;14.98;;;3.17;;
62006;SDS011;47963;53.008;6.754;2023-01-30T11:08:17;18.27;;;3.03;;
62006;SDS011;47963;53.008;6.754;2023-01-30T11:10:53;19.65;;;3.13;;
62006;SDS011;47963;53.008;6.754;2023-01-30T11:13:22;17.13;;;3.50;;
62006;SDS011;47963;53.008;6.754;2023-01-30T11:15:52;17.90;;;3.72;;
62006;SDS011;47963;53.008;6.754;2023-01-30T11:18:20;17.58;;;3.92;;
62006;SDS011;47963;53.008;6.754;2023-01-30T11:26:03;19.80;;;4.70;;
62006;SDS011;47963;53.008;6.754;2023-01-30T11:28:34;18.38;;;4.38;;
62006;SDS011;47963;53.008;6.754;2023-01-30T11:31:21;19.95;;;4.20;;
62006;SDS011;47963;53.008;6.754;2023-01-30T11:34:01;24.42;;;4.88;;
62006;SDS011;47963;53.008;6.754;2023-01-30T11:36:35;20.75;;;4.15;;
62006;SDS011;47963;53.008;6.754;2023-01-30T11:41:40;20.08;;;4.20;;
62006;SDS011;47963;53.008;6.754;2023-01-30T11:44:07;16.52;;;3.95;;
62006;SDS011;47963;53.008;6.754;2023-01-30T11:46:35;17.60;;;4.20;;
62006;SDS011;47963;53.008;6.754;2023-01-30T11:49:09;18.38;;;4.10;;
62006;SDS011;47963;53.008;6.754;2023-01-30T11:51:38;15.52;;;3.40;;
62006;SDS011;47963;53.008;6.754;2023-01-30T11:54:10;14.70;;;3.47;;
62006;SDS011;47963;53.008;6.754;2023-01-30T11:56:46;18.20;;;3.90;;
62006;SDS011;47963;53.008;6.754;2023-01-30T11:59:23;12.63;;;3.22;;
62006;SDS011;47963;53.008;6.754;2023-01-30T12:02:04;17.88;;;3.97;;
62006;SDS011;47963;53.008;6.754;2023-01-30T12:04:50;13.55;;;3.13;;
62006;SDS011;47963;53.008;6.754;2023-01-30T12:07:24;20.70;;;3.70;;
62006;SDS011;47963;53.008;6.754;2023-01-30T12:09:51;17.70;;;3.97;;
62006;SDS011;47963;53.008;6.754;2023-01-30T12:12:26;15.57;;;3.20;;
62006;SDS011;47963;53.008;6.754;2023-01-30T12:28:52;16.17;;;3.85;;
62006;SDS011;47963;53.008;6.754;2023-01-30T12:31:40;16.75;;;3.30;;
62006;SDS011;47963;53.008;6.754;2023-01-30T12:34:10;19.73;;;4.18;;
62006;SDS011;47963;53.008;6.754;2023-01-30T12:39:52;18.02;;;4.60;;
62006;SDS011;47963;53.008;6.754;2023-01-30T13:09:49;21.48;;;4.47;;
62006;SDS011;47963;53.008;6.754;2023-01-30T13:21:07;20.17;;;4.60;;
62006;SDS011;47963;53.008;6.754;2023-01-30T13:23:47;19.88;;;4.45;;
62006;SDS011;47963;53.008;6.754;2023-01-30T13:26:27;18.63;;;4.55;;
62006;SDS011;47963;53.008;6.754;2023-01-30T13:31:29;21.33;;;4.43;;
62006;SDS011;47963;53.008;6.754;2023-01-30T13:34:08;19.73;;;4.97;;
62006;SDS011;47963;53.008;6.754;2023-01-30T13:36:48;22.80;;;4.63;;
62006;SDS011;47963;53.008;6.754;2023-01-30T13:39:30;20.85;;;4.78;;
62006;SDS011;47963;53.008;6.754;2023-01-30T13:45:17;24.90;;;5.18;;
62006;SDS011;47963;53.008;6.754;2023-01-30T13:53:19;22.80;;;5.45;;
62006;SDS011;47963;53.008;6.754;2023-01-30T14:07:08;28.45;;;6.80;;
62006;SDS011;47963;53.008;6.754;2023-01-30T14:12:38;28.63;;;7.38;;
62006;SDS011;47963;53.008;6.754;2023-01-30T14:17:37;28.93;;;6.80;;
62006;SDS011;47963;53.008;6.754;2023-01-30T14:20:16;29.45;;;6.47;;
62006;SDS011;47963;53.008;6.754;2023-01-30T14:22:57;29.20;;;6.47;;
62006;SDS011;47963;53.008;6.754;2023-01-30T14:30:33;26.13;;;6.70;;
62006;SDS011;47963;53.008;6.754;2023-01-30T14:33:00;27.80;;;7.07;;
62006;SDS011;47963;53.008;6.754;2023-01-30T14:35:30;28.75;;;7.38;;
62006;SDS011;47963;53.008;6.754;2023-01-30T14:38:30;28.05;;;6.45;;
62006;SDS011;47963;53.008;6.754;2023-01-30T14:45:53;32.97;;;7.18;;
62006;SDS011;47963;53.008;6.754;2023-01-30T14:51:16;31.25;;;6.97;;
62006;SDS011;47963;53.008;6.754;2023-01-30T14:54:03;27.85;;;6.38;;
62006;SDS011;47963;53.008;6.754;2023-01-30T14:59:31;29.35;;;7.10;;
62006;SDS011;47963;53.008;6.754;2023-01-30T15:04:42;25.75;;;6.45;;
62006;SDS011;47963;53.008;6.754;2023-01-30T15:07:49;26.13;;;6.73;;
62006;SDS011;47963;53.008;6.754;2023-01-30T15:13:13;29.15;;;6.50;;
62006;SDS011;47963;53.008;6.754;2023-01-30T15:27:43;29.25;;;6.82;;
62006;SDS011;47963;53.008;6.754;2023-01-30T15:33:21;25.50;;;5.72;;
62006;SDS011;47963;53.008;6.754;2023-01-30T15:35:48;17.98;;;4.00;;
62006;SDS011;47963;53.008;6.754;2023-01-30T15:38:21;16.08;;;3.75;;
62006;SDS011;47963;53.008;6.754;2023-01-30T15:40:49;15.32;;;3.50;;
62006;SDS011;47963;53.008;6.754;2023-01-30T15:43:22;15.38;;;3.58;;
62006;SDS011;47963;53.008;6.754;2023-01-30T15:51:26;15.65;;;3.50;;
62006;SDS011;47963;53.008;6.754;2023-01-30T15:53:54;18.42;;;4.60;;
62006;SDS011;47963;53.008;6.754;2023-01-30T15:56:23;20.90;;;4.47;;
62006;SDS011;47963;53.008;6.754;2023-01-30T15:58:55;22.15;;;5.72;;
62006;SDS011;47963;53.008;6.754;2023-01-30T16:01:24;21.35;;;4.70;;
62006;SDS011;47963;53.008;6.754;2023-01-30T16:03:50;20.05;;;4.63;;
62006;SDS011;47963;53.008;6.754;2023-01-30T16:11:58;23.02;;;5.55;;
62006;SDS011;47963;53.008;6.754;2023-01-30T16:14:18;29.93;;;6.43;;
62006;SDS011;47963;53.008;6.754;2023-01-30T16:16:55;23.88;;;6.00;;
62006;SDS011;47963;53.008;6.754;2023-01-30T16:19:28;27.27;;;6.45;;
62006;SDS011;47963;53.008;6.754;2023-01-30T16:21:57;22.58;;;5.63;;
62006;SDS011;47963;53.008;6.754;2023-01-30T16:24:31;25.58;;;6.10;;
62006;SDS011;47963;53.008;6.754;2023-01-30T16:27:06;30.42;;;6.88;;
62006;SDS011;47963;53.008;6.754;2023-01-30T16:29:59;30.85;;;6.70;;
62006;SDS011;47963;53.008;6.754;2023-01-30T16:32:29;24.77;;;6.28;;
62006;SDS011;47963;53.008;6.754;2023-01-30T16:37:47;25.60;;;5.97;;
62006;SDS011;47963;53.008;6.754;2023-01-30T16:42:55;26.05;;;5.70;;
62006;SDS011;47963;53.008;6.754;2023-01-30T16:45:57;26.52;;;6.03;;
62006;SDS011;47963;53.008;6.754;2023-01-30T16:48:47;28.27;;;6.13;;
62006;SDS011;47963;53.008;6.754;2023-01-30T16:51:16;25.08;;;5.90;;
62006;SDS011;47963;53.008;6.754;2023-01-30T16:53:52;25.05;;;5.85;;
62006;SDS011;47963;53.008;6.754;2023-01-30T16:56:25;27.27;;;6.50;;
62006;SDS011;47963;53.008;6.754;2023-01-30T16:58:53;24.00;;;5.97;;
62006;SDS011;47963;53.008;6.754;2023-01-30T17:01:22;25.52;;;6.20;;
62006;SDS011;47963;53.008;6.754;2023-01-30T17:03:59;27.05;;;6.88;;
62006;SDS011;47963;53.008;6.754;2023-01-30T17:06:33;27.08;;;6.55;;
62006;SDS011;47963;53.008;6.754;2023-01-30T17:09:05;26.33;;;5.70;;
62006;SDS011;47963;53.008;6.754;2023-01-30T17:11:52;27.00;;;6.97;;
62006;SDS011;47963;53.008;6.754;2023-01-30T17:14:27;27.80;;;7.50;;
62006;SDS011;47963;53.008;6.754;2023-01-30T17:17:00;29.52;;;7.88;;
62006;SDS011;47963;53.008;6.754;2023-01-30T17:19:32;26.38;;;6.57;;
62006;SDS011;47963;53.008;6.754;2023-01-30T17:21:59;26.55;;;6.45;;
62006;SDS011;47963;53.008;6.754;2023-01-30T17:24:27;26.60;;;6.53;;
62006;SDS011;47963;53.008;6.754;2023-01-30T17:26:57;29.77;;;6.20;;
62006;SDS011;47963;53.008;6.754;2023-01-30T17:29:26;26.15;;;6.63;;
62006;SDS011;47963;53.008;6.754;2023-01-30T17:31:56;21.33;;;5.85;;
62006;SDS011;47963;53.008;6.754;2023-01-30T17:34:22;25.05;;;6.55;;
62006;SDS011;47963;53.008;6.754;2023-01-30T17:36:52;27.92;;;7.03;;
62006;SDS011;47963;53.008;6.754;2023-01-30T17:39:22;25.67;;;6.95;;
62006;SDS011;47963;53.008;6.754;2023-01-30T17:41:50;28.23;;;6.15;;
62006;SDS011;47963;53.008;6.754;2023-01-30T17:44:16;28.58;;;6.90;;
62006;SDS011;47963;53.008;6.754;2023-01-30T17:46:43;27.05;;;6.40;;
62006;SDS011;47963;53.008;6.754;2023-01-30T17:51:42;31.10;;;7.40;;
62006;SDS011;47963;53.008;6.754;2023-01-30T17:54:09;33.88;;;10.15;;
62006;SDS011;47963;53.008;6.754;2023-01-30T17:56:36;37.63;;;10.93;;
62006;SDS011;47963;53.008;6.754;2023-01-30T17:59:05;26.30;;;8.45;;
62006;SDS011;47963;53.008;6.754;2023-01-30T18:01:32;33.78;;;10.10;;
62006;SDS011;47963;53.008;6.754;2023-01-30T18:03:58;29.38;;;7.43;;
62006;SDS011;47963;53.008;6.754;2023-01-30T18:06:23;29.08;;;6.45;;
62006;SDS011;47963;53.008;6.754;2023-01-30T18:08:51;31.65;;;6.90;;
62006;SDS011;47963;53.008;6.754;2023-01-30T18:11:16;29.67;;;7.40;;
62006;SDS011;47963;53.008;6.754;2023-01-30T18:13:45;32.38;;;7.63;;
62006;SDS011;47963;53.008;6.754;2023-01-30T18:16:16;31.48;;;7.38;;
62006;SDS011;47963;53.008;6.754;2023-01-30T18:18:47;29.83;;;7.10;;
62006;SDS011;47963;53.008;6.754;2023-01-30T18:21:13;27.75;;;6.20;;
62006;SDS011;47963;53.008;6.754;2023-01-30T18:23:42;29.60;;;7.28;;